createdAt,value
2023-03-23T00:02:07.956Z,3.45
2023-03-23T00:04:38.382Z,3.60
2023-03-23T00:07:08.735Z,3.30
2023-03-23T00:09:42.237Z,3.72
2023-03-23T00:12:16.747Z,3.08
2023-03-23T00:14:47.981Z,3.63
2023-03-23T00:17:24.680Z,3.53
2023-03-23T00:19:55.406Z,3.63
2023-03-23T00:22:26.216Z,3.83
2023-03-23T00:24:57.043Z,3.85
2023-03-23T00:27:27.979Z,3.00
2023-03-23T00:29:58.299Z,3.05
2023-03-23T00:32:31.673Z,3.35
2023-03-23T00:35:05.985Z,3.42
2023-03-23T00:37:36.661Z,2.75
2023-03-23T00:40:11.525Z,3.78
2023-03-23T00:42:42.463Z,3.25
2023-03-23T00:45:14.706Z,2.63
2023-03-23T00:47:48.268Z,3.13
2023-03-23T00:50:22.249Z,2.30
2023-03-23T00:52:58.024Z,2.85
2023-03-23T00:55:29.102Z,1.88
2023-03-23T00:57:59.485Z,2.70
2023-03-23T01:00:30.562Z,2.25
2023-03-23T01:03:04.473Z,2.47
2023-03-23T01:05:39.054Z,1.95
2023-03-23T01:08:11.579Z,2.38
2023-03-23T01:10:42.255Z,2.25
2023-03-23T01:13:14.296Z,2.47
2023-03-23T01:15:45.848Z,2.13
2023-03-23T01:18:18.927Z,2.50
2023-03-23T01:21:09.118Z,2.40
2023-03-23T01:23:40.773Z,2.35
2023-03-23T01:26:12.605Z,2.90
2023-03-23T01:28:43.318Z,2.90
2023-03-23T01:31:15.621Z,2.00
2023-03-23T01:33:51.030Z,1.95
2023-03-23T01:36:24.489Z,2.08
2023-03-23T01:38:55.566Z,1.90
2023-03-23T01:41:26.489Z,1.75
2023-03-23T01:44:02.549Z,2.22
2023-03-23T01:46:37.776Z,1.83
2023-03-23T01:49:13.959Z,2.38
2023-03-23T01:51:49.636Z,1.90
2023-03-23T01:54:23.016Z,2.70
2023-03-23T01:56:59.322Z,1.70
2023-03-23T01:59:31.726Z,2.42
2023-03-23T02:02:29.410Z,2.25
2023-03-23T02:05:10.308Z,2.05
2023-03-23T02:07:41.659Z,2.38
2023-03-23T02:10:13.073Z,2.08
2023-03-23T02:12:43.868Z,2.65
2023-03-23T02:15:16.430Z,2.10
2023-03-23T02:17:57.107Z,1.83
2023-03-23T02:21:08.006Z,2.63
2023-03-23T02:24:00.850Z,2.63
2023-03-23T02:26:49.159Z,3.30
2023-03-23T02:29:46.905Z,2.75
2023-03-23T02:32:29.836Z,2.42
2023-03-23T02:35:06.899Z,2.00
2023-03-23T02:37:41.879Z,2.20
2023-03-23T02:40:17.222Z,2.55
2023-03-23T02:42:51.543Z,3.05
2023-03-23T02:45:24.214Z,2.35
2023-03-23T02:47:57.929Z,1.88
2023-03-23T02:50:32.091Z,2.78
2023-03-23T02:53:04.022Z,1.95
2023-03-23T02:55:36.249Z,2.70
2023-03-23T02:58:08.499Z,2.78
2023-03-23T03:00:40.968Z,2.72
2023-03-23T03:03:17.328Z,2.20
2023-03-23T03:06:04.240Z,2.40
2023-03-23T03:08:40.811Z,2.63
2023-03-23T03:11:15.580Z,3.20
2023-03-23T03:13:54.054Z,2.10
2023-03-23T03:16:32.074Z,2.45
2023-03-23T03:19:06.578Z,2.75
2023-03-23T03:21:43.129Z,2.55
2023-03-23T03:24:18.943Z,2.47
2023-03-23T03:26:59.246Z,2.35
2023-03-23T03:29:44.901Z,2.33
2023-03-23T03:32:21.121Z,2.47
2023-03-23T03:34:52.193Z,3.08
2023-03-23T03:37:27.745Z,2.47
2023-03-23T03:39:58.825Z,3.25
2023-03-23T03:42:30.509Z,3.25
2023-03-23T03:45:01.794Z,3.08
2023-03-23T03:47:33.349Z,2.88
2023-03-23T03:50:04.618Z,3.75
2023-03-23T03:52:39.951Z,2.50
2023-03-23T03:55:13.325Z,2.63
2023-03-23T03:57:47.798Z,2.53
2023-03-23T04:00:42.602Z,2.50
2023-03-23T04:03:14.005Z,2.35
2023-03-23T04:05:58.281Z,2.53
2023-03-23T04:08:33.116Z,2.72
2023-03-23T04:11:03.898Z,2.80
2023-03-23T04:13:35.454Z,3.88
2023-03-23T04:16:14.953Z,3.92
2023-03-23T04:18:46.070Z,2.75
2023-03-23T04:21:26.920Z,4.18
2023-03-23T04:24:02.190Z,3.17
2023-03-23T04:26:33.833Z,2.55
2023-03-23T04:29:13.890Z,3.47
2023-03-23T04:32:08.240Z,3.40
2023-03-23T04:34:45.258Z,3.38
2023-03-23T04:37:16.454Z,3.28
2023-03-23T04:39:49.566Z,3.00
2023-03-23T04:42:22.839Z,3.88
2023-03-23T04:45:06.798Z,3.20
2023-03-23T04:47:50.614Z,2.95
2023-03-23T04:50:25.984Z,2.92
2023-03-23T04:52:57.856Z,2.95
2023-03-23T04:55:31.402Z,3.05
2023-03-23T04:58:03.885Z,4.43
2023-03-23T05:01:00.472Z,3.30
2023-03-23T05:03:31.279Z,2.95
2023-03-23T05:06:05.002Z,3.85
2023-03-23T05:08:39.857Z,3.03
2023-03-23T05:11:13.971Z,2.50
2023-03-23T05:13:46.646Z,2.92
2023-03-23T05:16:17.465Z,2.60
2023-03-23T05:18:50.538Z,2.55
2023-03-23T05:21:23.159Z,2.53
2023-03-23T05:23:57.632Z,3.13
2023-03-23T05:26:32.499Z,2.97
2023-03-23T05:29:09.902Z,2.92
2023-03-23T05:32:12.797Z,2.65
2023-03-23T05:34:44.106Z,2.53
2023-03-23T05:37:15.059Z,2.70
2023-03-23T05:39:57.265Z,2.70
2023-03-23T05:42:48.501Z,2.30
2023-03-23T05:45:24.124Z,3.22
2023-03-23T05:47:56.211Z,2.58
2023-03-23T05:50:30.158Z,1.98
2023-03-23T05:53:05.713Z,2.55
2023-03-23T05:55:41.070Z,2.35
2023-03-23T05:58:47.052Z,2.55
2023-03-23T06:01:17.959Z,2.38
2023-03-23T06:03:50.318Z,2.92
2023-03-23T06:06:25.949Z,3.83
2023-03-23T06:09:05.577Z,3.55
2023-03-23T06:11:59.971Z,3.05
2023-03-23T06:14:44.316Z,2.83
2023-03-23T06:17:18.883Z,3.80
2023-03-23T06:19:54.464Z,3.30
2023-03-23T06:22:26.471Z,3.55
2023-03-23T06:25:21.393Z,4.68
2023-03-23T06:27:53.181Z,3.42
2023-03-23T06:30:28.081Z,3.63
2023-03-23T06:32:59.064Z,3.25
2023-03-23T06:35:50.558Z,3.35
2023-03-23T06:38:34.603Z,3.58
2023-03-23T06:41:06.064Z,3.88
2023-03-23T06:43:40.509Z,4.15
2023-03-23T06:46:22.241Z,3.33
2023-03-23T06:49:01.113Z,3.15
2023-03-23T06:51:46.953Z,3.63
2023-03-23T06:54:18.763Z,3.33
2023-03-23T06:56:49.972Z,3.45
2023-03-23T06:59:21.494Z,3.80
2023-03-23T07:01:56.565Z,4.32
2023-03-23T07:04:27.867Z,3.63
2023-03-23T07:07:12.325Z,4.03
2023-03-23T07:09:51.673Z,4.35
2023-03-23T07:12:26.241Z,4.50
2023-03-23T07:14:56.683Z,4.30
2023-03-23T07:17:29.932Z,4.55
2023-03-23T07:20:12.090Z,4.65
2023-03-23T07:22:43.065Z,5.65
2023-03-23T07:25:34.092Z,4.75
2023-03-23T07:28:05.329Z,3.95
2023-03-23T07:30:36.139Z,4.05
2023-03-23T07:33:12.685Z,4.32
2023-03-23T07:35:44.181Z,3.88
2023-03-23T07:38:17.993Z,3.67
2023-03-23T07:40:52.213Z,4.65
2023-03-23T07:43:24.217Z,4.13
2023-03-23T07:45:57.661Z,3.70
2023-03-23T07:48:36.471Z,4.95
2023-03-23T07:51:08.377Z,4.47
2023-03-23T07:53:39.794Z,5.20
2023-03-23T07:56:22.674Z,5.35
2023-03-23T07:58:59.142Z,5.05
2023-03-23T08:01:29.781Z,4.25
2023-03-23T08:04:21.689Z,4.57
2023-03-23T08:07:13.508Z,4.10
2023-03-23T08:09:51.565Z,5.32
2023-03-23T08:12:35.138Z,5.78
2023-03-23T08:15:25.459Z,5.30
2023-03-23T08:18:11.772Z,5.57
2023-03-23T08:20:49.722Z,5.18
2023-03-23T08:23:33.111Z,4.85
2023-03-23T08:26:21.325Z,4.65
2023-03-23T08:29:04.464Z,5.70
2023-03-23T08:31:53.236Z,5.47
2023-03-23T08:34:48.726Z,5.07
2023-03-23T08:37:42.860Z,4.90
2023-03-23T08:40:33.520Z,4.82
2023-03-23T08:44:05.036Z,4.10
2023-03-23T08:46:30.074Z,5.07
2023-03-23T08:49:17.226Z,4.10
2023-03-23T08:52:08.851Z,4.78
2023-03-23T08:55:02.993Z,5.88
2023-03-23T08:57:56.830Z,5.00
2023-03-23T09:00:51.258Z,5.25
2023-03-23T09:03:51.665Z,4.45
2023-03-23T09:06:40.587Z,4.65
2023-03-23T09:09:11.125Z,4.00
2023-03-23T09:11:44.448Z,3.90
2023-03-23T09:14:15.634Z,4.63
2023-03-23T09:16:46.331Z,5.20
2023-03-23T09:19:16.881Z,3.95
2023-03-23T09:21:47.404Z,3.78
2023-03-23T09:24:17.874Z,4.35
2023-03-23T09:26:50.939Z,4.65
2023-03-23T09:29:22.253Z,4.95
2023-03-23T09:31:52.741Z,4.55
2023-03-23T09:34:23.561Z,4.40
2023-03-23T09:36:56.109Z,3.88
2023-03-23T09:39:28.375Z,4.55
2023-03-23T09:42:30.554Z,4.07
2023-03-23T09:45:10.785Z,4.60
2023-03-23T09:47:47.925Z,4.95
2023-03-23T09:50:21.315Z,4.88
2023-03-23T09:52:59.473Z,4.18
2023-03-23T09:55:30.076Z,3.90
2023-03-23T09:58:07.271Z,3.72
2023-03-23T10:00:40.837Z,3.47
2023-03-23T10:03:15.778Z,4.20
2023-03-23T10:05:49.166Z,4.40
2023-03-23T10:08:21.274Z,5.13
2023-03-23T10:11:01.981Z,3.50
2023-03-23T10:13:50.196Z,4.30
2023-03-23T10:16:26.069Z,4.15
2023-03-23T10:19:01.215Z,3.88
2023-03-23T10:21:33.704Z,4.15
2023-03-23T10:24:06.300Z,3.85
2023-03-23T10:26:47.694Z,3.45
2023-03-23T10:29:25.069Z,3.63
2023-03-23T10:32:00.617Z,4.10
2023-03-23T10:34:37.210Z,3.83
2023-03-23T10:37:13.276Z,4.18
2023-03-23T10:39:50.758Z,4.13
2023-03-23T10:42:29.880Z,3.90
2023-03-23T10:45:06.863Z,3.67
2023-03-23T10:47:39.655Z,3.50
2023-03-23T10:50:16.442Z,5.22
2023-03-23T10:52:48.353Z,4.55
2023-03-23T10:55:20.622Z,4.20
2023-03-23T10:58:03.892Z,4.32
2023-03-23T11:00:37.468Z,4.78
2023-03-23T11:03:11.558Z,4.82
2023-03-23T11:05:46.100Z,3.92
2023-03-23T11:08:17.933Z,4.18
2023-03-23T11:10:53.995Z,3.80
2023-03-23T11:13:26.549Z,3.87
2023-03-23T11:15:59.824Z,3.47
2023-03-23T11:18:38.637Z,3.85
2023-03-23T11:21:12.789Z,4.45
2023-03-23T11:23:45.005Z,5.05
2023-03-23T11:26:20.626Z,3.67
2023-03-23T11:28:57.718Z,4.28
2023-03-23T11:31:34.869Z,4.07
2023-03-23T11:34:08.564Z,3.60
2023-03-23T11:36:42.022Z,4.20
2023-03-23T11:39:26.489Z,5.95
2023-03-23T11:42:08.982Z,4.07
2023-03-23T11:44:47.214Z,4.70
2023-03-23T11:47:28.960Z,4.82
2023-03-23T11:50:07.072Z,4.72
2023-03-23T11:52:53.982Z,5.63
2023-03-23T11:55:31.267Z,5.18
2023-03-23T11:58:07.909Z,5.35
2023-03-23T12:00:38.959Z,4.78
2023-03-23T12:03:29.584Z,7.03
2023-03-23T12:06:07.505Z,6.10
2023-03-23T12:08:54.797Z,5.80
2023-03-23T12:11:32.086Z,5.00
2023-03-23T12:14:25.192Z,4.85
2023-03-23T12:17:09.547Z,4.43
2023-03-23T12:19:50.912Z,3.67
2023-03-23T12:22:39.837Z,4.68
2023-03-23T12:25:24.546Z,4.35
2023-03-23T12:28:04.064Z,4.30
2023-03-23T12:30:39.938Z,4.35
2023-03-23T12:33:28.038Z,4.57
2023-03-23T12:36:13.859Z,5.30
2023-03-23T12:39:06.054Z,4.25
2023-03-23T12:41:43.166Z,3.63
2023-03-23T12:44:16.240Z,3.35
2023-03-23T12:46:59.632Z,3.63
2023-03-23T12:49:35.526Z,3.92
2023-03-23T12:52:15.802Z,4.50
2023-03-23T12:54:54.085Z,3.80
2023-03-23T12:57:32.091Z,3.83
2023-03-23T13:00:12.821Z,4.55
2023-03-23T13:02:48.354Z,4.57
2023-03-23T13:05:34.488Z,5.53
2023-03-23T13:08:15.640Z,3.75
2023-03-23T13:10:50.287Z,4.97
2023-03-23T13:13:23.584Z,3.97
2023-03-23T13:16:05.564Z,4.65
2023-03-23T13:18:45.863Z,3.92
2023-03-23T13:21:23.494Z,4.22
2023-03-23T13:24:01.058Z,4.65
2023-03-23T13:26:32.805Z,4.50
2023-03-23T13:29:05.817Z,4.13
2023-03-23T13:31:38.035Z,4.60
2023-03-23T13:34:11.804Z,4.28
2023-03-23T13:36:46.113Z,3.88
2023-03-23T13:39:26.950Z,5.75
2023-03-23T13:42:26.318Z,4.20
2023-03-23T13:45:25.654Z,3.42
2023-03-23T13:50:59.458Z,3.08
2023-03-23T13:53:33.843Z,3.45
2023-03-23T13:56:21.526Z,2.58
2023-03-23T14:01:36.890Z,2.75
2023-03-23T14:04:11.050Z,3.20
2023-03-23T14:06:41.834Z,3.85
2023-03-23T14:09:21.164Z,3.75
2023-03-23T14:12:01.158Z,3.15
2023-03-23T14:14:36.925Z,3.92
2023-03-23T14:17:15.003Z,4.47
2023-03-23T14:19:51.152Z,2.97
2023-03-23T14:22:28.249Z,3.00
2023-03-23T14:25:10.303Z,3.53
2023-03-23T14:27:44.817Z,3.10
2023-03-23T14:30:19.286Z,3.22
2023-03-23T14:32:51.253Z,2.83
2023-03-23T14:35:27.362Z,3.65
2023-03-23T14:37:58.660Z,3.10
2023-03-23T14:40:32.310Z,3.00
2023-03-23T14:43:07.187Z,3.17
2023-03-23T14:45:38.136Z,3.38
2023-03-23T14:48:10.959Z,2.35
2023-03-23T14:50:43.704Z,2.58
2023-03-23T14:53:17.700Z,3.05
2023-03-23T14:55:51.265Z,2.20
2023-03-23T14:58:26.917Z,2.70
2023-03-23T15:01:02.913Z,2.20
2023-03-23T15:03:38.076Z,3.13
2023-03-23T15:06:15.903Z,2.38
2023-03-23T15:08:47.830Z,3.00
2023-03-23T15:11:31.226Z,3.58
2023-03-23T15:14:21.924Z,2.75
2023-03-23T15:16:54.225Z,2.38
2023-03-23T15:19:27.529Z,3.05
2023-03-23T15:22:00.594Z,2.65
2023-03-23T15:24:37.097Z,2.47
2023-03-23T15:27:20.777Z,3.08
2023-03-23T15:30:02.890Z,2.63
2023-03-23T15:32:44.085Z,2.20
2023-03-23T15:35:28.814Z,2.35
2023-03-23T15:38:03.311Z,2.53
2023-03-23T15:40:38.277Z,2.00
2023-03-23T15:43:12.371Z,1.80
2023-03-23T15:45:57.093Z,1.35
2023-03-23T15:48:32.712Z,1.60
2023-03-23T15:52:02.761Z,2.05
2023-03-23T15:54:18.842Z,1.02
2023-03-23T15:56:50.989Z,1.35
2023-03-23T15:59:22.582Z,1.63
2023-03-23T16:01:59.161Z,1.60
2023-03-23T16:04:30.889Z,1.08
2023-03-23T16:07:02.100Z,1.77
2023-03-23T16:09:32.647Z,1.63
2023-03-23T16:12:03.122Z,1.40
2023-03-23T16:14:33.921Z,1.23
2023-03-23T16:17:07.629Z,1.23
2023-03-23T16:19:38.581Z,1.50
2023-03-23T16:22:09.160Z,0.90
2023-03-23T16:24:39.729Z,0.93
2023-03-23T16:27:12.159Z,1.80
2023-03-23T16:30:00.342Z,1.20
2023-03-23T16:35:06.080Z,1.35
2023-03-23T16:37:36.842Z,1.48
2023-03-23T16:40:09.887Z,1.58
2023-03-23T16:42:40.502Z,1.40
2023-03-23T16:45:12.489Z,1.30
2023-03-23T16:47:46.434Z,1.17
2023-03-23T16:50:19.390Z,1.35
2023-03-23T16:52:50.592Z,1.15
2023-03-23T16:55:21.205Z,1.30
2023-03-23T16:57:54.138Z,0.80
2023-03-23T17:00:27.751Z,1.15
2023-03-23T17:03:00.909Z,1.02
2023-03-23T17:05:32.490Z,1.95
2023-03-23T17:08:03.033Z,0.80
2023-03-23T17:10:36.102Z,1.60
2023-03-23T17:13:06.765Z,1.23
2023-03-23T17:16:03.453Z,1.10
2023-03-23T17:18:36.852Z,1.27
2023-03-23T17:21:07.727Z,1.10
2023-03-23T17:23:38.509Z,2.38
2023-03-23T17:26:09.715Z,2.10
2023-03-23T17:28:40.568Z,2.05
2023-03-23T17:31:11.550Z,1.20
2023-03-23T17:33:45.616Z,1.40
2023-03-23T17:36:16.136Z,1.88
2023-03-23T17:38:46.727Z,1.30
2023-03-23T17:41:17.505Z,1.65
2023-03-23T17:43:48.013Z,1.80
2023-03-23T17:46:18.875Z,1.27
2023-03-23T17:48:51.985Z,1.85
2023-03-23T17:51:23.254Z,2.50
2023-03-23T17:53:53.685Z,1.70
2023-03-23T17:56:24.193Z,1.77
2023-03-23T17:58:54.966Z,1.85
2023-03-23T18:01:25.522Z,2.03
2023-03-23T18:03:58.685Z,1.92
2023-03-23T18:06:29.275Z,2.42
2023-03-23T18:09:00.095Z,2.70
2023-03-23T18:11:30.783Z,1.90
2023-03-23T18:14:01.313Z,1.90
2023-03-23T18:16:32.016Z,2.30
2023-03-23T18:19:05.188Z,1.85
2023-03-23T18:21:36.126Z,2.33
2023-03-23T18:24:06.988Z,2.42
2023-03-23T18:26:37.612Z,2.72
2023-03-23T18:29:16.585Z,1.92
2023-03-23T18:31:47.730Z,2.65
2023-03-23T18:34:21.257Z,1.88
2023-03-23T18:36:52.063Z,1.80
2023-03-23T18:39:22.650Z,2.05
2023-03-23T18:41:53.366Z,2.33
2023-03-23T18:44:23.972Z,2.05
2023-03-23T18:46:54.518Z,1.90
2023-03-23T18:49:28.668Z,2.00
2023-03-23T18:51:59.156Z,2.05
2023-03-23T18:54:34.414Z,2.60
2023-03-23T18:57:05.132Z,2.47
2023-03-23T18:59:36.189Z,2.28
2023-03-23T19:02:06.956Z,2.15
2023-03-23T19:04:40.133Z,2.35
2023-03-23T19:07:10.755Z,2.50
2023-03-23T19:09:41.594Z,3.05
2023-03-23T19:12:13.217Z,2.28
2023-03-23T19:14:43.982Z,2.53
2023-03-23T19:17:15.005Z,2.30
2023-03-23T19:19:48.876Z,2.70
2023-03-23T19:22:19.616Z,2.22
2023-03-23T19:24:50.198Z,1.98
2023-03-23T19:27:21.262Z,2.40
2023-03-23T19:29:51.883Z,2.40
2023-03-23T19:32:24.929Z,2.35
2023-03-23T19:35:00.069Z,1.95
2023-03-23T19:37:34.553Z,2.90
2023-03-23T19:40:31.391Z,2.13
2023-03-23T19:43:02.639Z,1.90
2023-03-23T19:45:33.164Z,2.38
2023-03-23T19:48:04.100Z,2.00
2023-03-23T19:50:38.806Z,2.05
2023-03-23T19:53:10.137Z,2.10
2023-03-23T19:55:41.832Z,1.83
2023-03-23T19:58:12.607Z,2.20
2023-03-23T20:00:44.374Z,2.05
2023-03-23T20:03:15.958Z,2.10
2023-03-23T20:05:49.500Z,2.15
2023-03-23T20:08:20.193Z,1.60
2023-03-23T20:10:50.728Z,1.30
2023-03-23T20:13:21.178Z,1.65
2023-03-23T20:15:58.112Z,1.60
2023-03-23T20:18:31.517Z,1.58
2023-03-23T20:21:10.543Z,1.60
2023-03-23T20:23:42.744Z,2.03
2023-03-23T20:26:16.193Z,2.05
2023-03-23T20:28:47.719Z,2.08
2023-03-23T20:31:24.041Z,1.48
2023-03-23T20:34:01.889Z,1.70
2023-03-23T20:36:40.569Z,1.60
2023-03-23T20:39:14.372Z,1.80
2023-03-23T20:41:48.671Z,1.80
2023-03-23T20:44:20.069Z,1.80
2023-03-23T20:46:52.759Z,1.55
2023-03-23T20:49:24.280Z,1.50
2023-03-23T20:51:58.409Z,1.52
2023-03-23T20:54:30.150Z,1.48
2023-03-23T20:57:01.868Z,1.75
2023-03-23T20:59:32.829Z,2.42
2023-03-23T21:02:05.130Z,1.55
2023-03-23T21:04:37.479Z,1.80
2023-03-23T21:07:11.704Z,1.83
2023-03-23T21:09:48.023Z,1.52
2023-03-23T21:14:53.018Z,1.60
2023-03-23T21:17:23.845Z,1.75
2023-03-23T21:19:54.510Z,2.45
2023-03-23T21:22:27.668Z,1.80
2023-03-23T21:24:59.293Z,1.40
2023-03-23T21:27:29.907Z,1.60
2023-03-23T21:30:01.944Z,1.85
2023-03-23T21:32:32.407Z,1.50
2023-03-23T21:35:03.736Z,1.60
2023-03-23T21:37:37.515Z,1.30
2023-03-23T21:40:13.385Z,1.10
2023-03-23T21:42:45.491Z,1.75
2023-03-23T21:45:21.900Z,1.13
2023-03-23T21:47:57.391Z,1.48
2023-03-23T21:50:30.138Z,1.48
2023-03-23T21:53:03.514Z,1.15
2023-03-23T21:55:35.356Z,1.55
2023-03-23T21:58:09.874Z,1.17
2023-03-23T22:00:41.488Z,0.98
2023-03-23T22:03:15.752Z,0.90
2023-03-23T22:05:49.022Z,1.20
2023-03-23T22:08:22.811Z,1.10
2023-03-23T22:11:01.226Z,1.25
2023-03-23T22:13:34.558Z,1.23
2023-03-23T22:16:07.686Z,0.93
2023-03-23T22:18:39.383Z,1.00
2023-03-23T22:21:10.670Z,1.05
2023-03-23T22:23:45.744Z,1.13
2023-03-23T22:26:17.629Z,1.40
2023-03-23T22:28:51.783Z,1.30
2023-03-23T22:31:25.232Z,1.30
2023-03-23T22:33:57.607Z,1.60
2023-03-23T22:36:30.039Z,1.40
2023-03-23T22:39:04.405Z,1.08
2023-03-23T22:41:37.188Z,1.08
2023-03-23T22:44:09.023Z,1.00
2023-03-23T22:46:39.535Z,0.95
2023-03-23T22:49:10.245Z,1.23
2023-03-23T22:51:41.094Z,1.20
2023-03-23T22:54:14.298Z,1.30
2023-03-23T22:56:44.860Z,1.85
2023-03-23T22:59:16.510Z,1.30
2023-03-23T23:01:47.526Z,1.65
2023-03-23T23:04:18.749Z,1.45
2023-03-23T23:06:55.448Z,1.70
2023-03-23T23:09:37.106Z,1.65
2023-03-23T23:12:09.155Z,2.60
2023-03-23T23:14:41.503Z,1.20
2023-03-23T23:17:13.079Z,1.67
2023-03-23T23:19:44.299Z,1.33
2023-03-23T23:22:19.189Z,1.83
2023-03-23T23:24:53.635Z,1.10
2023-03-23T23:27:24.891Z,1.65
2023-03-23T23:29:56.638Z,1.33
2023-03-23T23:32:29.420Z,1.20
2023-03-23T23:35:00.325Z,1.73
2023-03-23T23:37:31.464Z,2.38
2023-03-23T23:40:07.200Z,1.40
2023-03-23T23:42:38.536Z,1.45
2023-03-23T23:45:10.731Z,1.60
2023-03-23T23:47:42.503Z,2.90
2023-03-23T23:50:14.844Z,3.00
2023-03-23T23:52:47.207Z,1.80
2023-03-23T23:55:21.871Z,1.80
2023-03-23T23:57:53.273Z,1.80
